Time;durP1;ratioP1;P1;durP2;ratioP2;P2;SDS_P1;SDS_P2;PMS_P1;PMS_P2;Temp;Humidity;BMP_temperature;BMP_pressure;BME280_temperature;BME280_humidity;BME280_pressure;Samples;Min_cycle;Max_cycle;Signal;HPM_P1;HPM_P2
2023/10/18 00:00:28;;;;;;;34.70;26.00;;;;;;;5.28;100.00;100540.88;177129;1257;46004;-83
2023/10/18 00:04:51;;;;;;;32.40;22.60;;;;;;;5.25;100.00;100533.81;177405;1258;61216;-83
2023/10/18 00:08:57;;;;;;;35.80;23.80;;;;;;;5.26;100.00;100532.58;177286;1261;47497;-83
2023/10/18 00:13:00;;;;;;;;;;;;;;;5.25;100.00;100527.68;177093;1261;46952;-83
2023/10/18 00:17:06;;;;;;;38.90;29.20;;;;;;;5.21;100.00;100530.93;177492;1257;45873;-83
2023/10/18 00:21:09;;;;;;;40.70;28.80;;;;;;;5.14;100.00;100533.55;177296;1257;45949;-84
2023/10/18 00:25:13;;;;;;;34.40;21.20;;;;;;;5.12;100.00;100531.40;177255;1258;58588;-83
2023/10/18 00:29:17;;;;;;;43.20;27.00;;;;;;;5.10;100.00;100530.30;177219;1259;46086;-83
2023/10/18 00:33:21;;;;;;;34.90;23.70;;;;;;;5.06;100.00;100531.04;177037;1261;46080;-83
2023/10/18 00:37:25;;;;;;;38.10;22.20;;;;;;;5.04;100.00;100532.39;177249;1261;46105;-82
2023/10/18 00:41:37;;;;;;;32.30;22.50;;;;;;;4.98;100.00;100528.63;177150;1258;45990;-83
2023/10/18 00:45:44;;;;;;;38.00;26.60;;;;;;;4.87;100.00;100526.78;177433;1259;58492;-82
2023/10/18 00:49:52;;;;;;;32.80;20.90;;;;;;;4.82;100.00;100520.17;177730;1260;46029;-83
2023/10/18 00:53:55;;;;;;;34.40;24.40;;;;;;;4.77;100.00;100519.08;177323;1257;45929;-83
2023/10/18 00:57:59;;;;;;;39.30;25.40;;;;;;;4.73;100.00;100518.58;177540;1259;46101;-83
2023/10/18 01:02:13;;;;;;;35.00;24.70;;;;;;;4.68;100.00;100516.38;177380;1257;46272;-83
2023/10/18 01:06:24;;;;;;;39.40;24.30;;;;;;;4.62;100.00;100513.16;177288;1257;59243;-83
2023/10/18 01:10:30;;;;;;;25.50;18.00;;;;;;;4.60;100.00;100516.77;177408;1257;45948;-83
2023/10/18 01:14:34;;;;;;;26.80;18.40;;;;;;;4.47;100.00;100510.80;177409;1259;46085;-83
2023/10/18 01:18:37;;;;;;;35.70;23.70;;;;;;;4.23;100.00;100510.10;177238;1259;45987;-83
2023/10/18 01:22:41;;;;;;;32.20;22.00;;;;;;;4.20;100.00;100505.85;177514;1257;44926;-83
2023/10/18 01:26:45;;;;;;;30.10;23.20;;;;;;;4.24;100.00;100506.16;177424;1259;58342;-83
2023/10/18 01:30:50;;;;;;;29.00;22.80;;;;;;;4.28;100.00;100505.96;177402;1256;44778;-83
2023/10/18 01:34:55;;;;;;;34.30;21.80;;;;;;;4.35;100.00;100505.45;177495;1257;46085;-83
2023/10/18 01:38:59;;;;;;;25.80;16.50;;;;;;;4.36;100.00;100493.79;177319;1262;46216;-83
2023/10/18 01:43:04;;;;;;;29.00;18.30;;;;;;;4.34;100.00;100488.10;176968;1257;45995;-83
2023/10/18 01:47:07;;;;;;;27.90;18.40;;;;;;;4.31;100.00;100479.81;177417;1262;59330;-83
2023/10/18 01:51:12;;;;;;;28.10;18.20;;;;;;;4.23;100.00;100484.81;177174;1257;46177;-83
2023/10/18 01:55:31;;;;;;;22.60;16.10;;;;;;;4.11;100.00;100479.77;177399;1258;46061;-83
2023/10/18 01:59:37;;;;;;;23.30;13.90;;;;;;;4.09;100.00;100482.73;177342;1257;46086;-82
2023/10/18 02:03:41;;;;;;;33.70;20.50;;;;;;;4.06;100.00;100479.72;177395;1257;46081;-83
2023/10/18 02:07:47;;;;;;;26.90;17.40;;;;;;;3.98;100.00;100475.94;174431;1261;3797705;-83
2023/10/18 02:11:52;;;;;;;32.40;20.70;;;;;;;3.92;100.00;100476.20;177416;1257;46172;-83
2023/10/18 02:15:57;;;;;;;31.10;18.30;;;;;;;3.86;100.00;100473.71;177230;1257;46032;-83
2023/10/18 02:20:01;;;;;;;32.50;22.50;;;;;;;3.81;100.00;100469.71;177249;1256;46089;-84
2023/10/18 02:24:06;;;;;;;36.20;22.00;;;;;;;3.79;100.00;100474.05;177304;1260;46438;-83
2023/10/18 02:28:24;;;;;;;24.70;17.50;;;;;;;3.76;100.00;100468.27;177130;1258;59415;-83
2023/10/18 02:32:32;;;;;;;28.80;18.00;;;;;;;3.74;100.00;100471.16;177396;1257;46444;-83
2023/10/18 02:36:46;;;;;;;26.40;19.40;;;;;;;3.73;100.00;100471.39;177549;1261;46168;-83
2023/10/18 02:40:50;;;;;;;23.70;16.80;;;;;;;3.68;100.00;100464.98;177275;1258;46034;-83
2023/10/18 02:44:56;;;;;;;28.00;18.60;;;;;;;3.59;100.00;100464.72;177305;1261;46109;-83
2023/10/18 02:49:00;;;;;;;28.70;18.40;;;;;;;3.50;100.00;100462.86;177299;1258;59203;-83
2023/10/18 02:53:06;;;;;;;30.80;19.10;;;;;;;3.47;100.00;100463.88;177475;1257;46023;-83
2023/10/18 02:57:13;;;;;;;31.20;21.20;;;;;;;3.42;100.00;100468.17;177640;1257;46136;-84
2023/10/18 03:01:19;;;;;;;29.20;20.80;;;;;;;3.41;100.00;100470.84;178059;1257;46159;-85
2023/10/18 03:05:24;;;;;;;;;;;;;;;3.40;100.00;100473.89;178087;1257;45974;-83
2023/10/18 03:13:38;;;;;;;30.30;21.60;;;;;;;3.43;100.00;100475.98;176942;1262;46002;-83
2023/10/18 03:17:41;;;;;;;27.70;18.70;;;;;;;3.41;100.00;100473.64;177319;1256;45849;-83
2023/10/18 03:21:48;;;;;;;27.60;18.90;;;;;;;3.40;100.00;100477.04;178550;1257;45949;-83
2023/10/18 03:26:00;;;;;;;31.00;19.00;;;;;;;3.42;100.00;100475.34;177934;1262;46147;-82
2023/10/18 03:30:17;;;;;;;35.80;20.00;;;;;;;3.34;100.00;100470.51;177418;1257;58002;-83
2023/10/18 03:34:22;;;;;;;33.80;21.30;;;;;;;3.10;100.00;100465.63;177164;1262;46032;-82
2023/10/18 03:38:29;;;;;;;30.60;17.40;;;;;;;2.88;100.00;100460.23;178003;1260;46146;-83
2023/10/18 03:42:33;;;;;;;32.90;19.10;;;;;;;2.72;100.00;100472.48;177778;1258;46028;-83
2023/10/18 03:46:49;;;;;;;32.70;19.50;;;;;;;2.62;100.00;100467.86;177707;1258;46663;-82
2023/10/18 03:51:00;;;;;;;32.60;21.10;;;;;;;2.62;100.00;100462.27;177455;1257;60057;-82
2023/10/18 03:59:21;;;;;;;31.70;19.20;;;;;;;2.83;100.00;100442.55;178096;1257;45964;-82
2023/10/18 04:03:29;;;;;;;23.90;15.80;;;;;;;2.87;100.00;100440.48;179302;1255;44276;-75
2023/10/18 04:07:33;;;;;;;25.30;16.40;;;;;;;2.80;100.00;100436.91;179238;1257;44120;-79
2023/10/18 04:11:37;;;;;;;26.60;17.70;;;;;;;2.61;100.00;100428.17;177312;1257;58169;-79
2023/10/18 04:15:45;;;;;;;29.60;16.60;;;;;;;2.48;100.00;100419.48;178211;1255;46112;-79
2023/10/18 04:19:49;;;;;;;27.60;19.40;;;;;;;2.45;100.00;100413.32;179810;1256;44728;-79
2023/10/18 04:23:56;;;;;;;26.30;19.60;;;;;;;2.38;100.00;100415.01;178572;1259;46536;-79
2023/10/18 04:27:59;;;;;;;36.30;23.80;;;;;;;2.39;100.00;100420.60;179074;1257;46290;-79
2023/10/18 04:32:05;;;;;;;35.70;21.10;;;;;;;2.43;100.00;100419.18;176214;1257;59385;-79
2023/10/18 04:36:12;;;;;;;36.30;21.90;;;;;;;2.49;100.00;100415.40;178460;1256;46370;-79
2023/10/18 04:40:26;;;;;;;31.20;16.00;;;;;;;2.47;100.00;100418.31;178209;1256;46185;-79
2023/10/18 04:44:34;;;;;;;26.20;15.40;;;;;;;2.35;100.00;100419.73;178848;1259;46194;-79
2023/10/18 04:52:52;;;;;;;29.30;15.80;;;;;;;2.39;100.00;100416.90;176848;1260;57926;-79
2023/10/18 04:56:58;;;;;;;30.70;14.80;;;;;;;2.42;100.00;100412.90;178480;1256;44897;-80
2023/10/18 05:01:22;;;;;;;36.30;16.60;;;;;;;2.47;100.00;100411.16;177851;1256;46006;-80
2023/10/18 05:05:27;;;;;;;20.20;13.50;;;;;;;2.46;100.00;100412.23;178558;1257;45984;-79
2023/10/18 05:09:41;;;;;;;21.00;14.40;;;;;;;2.42;100.00;100413.27;177526;1257;45987;-80
2023/10/18 05:13:45;;;;;;;20.20;14.30;;;;;;;2.36;100.00;100416.87;177052;1257;58586;-80
2023/10/18 05:17:57;;;;;;;23.20;15.80;;;;;;;2.34;100.00;100416.07;177298;1259;46015;-80
2023/10/18 05:22:03;;;;;;;19.30;14.50;;;;;;;2.28;100.00;100418.44;178421;1256;46082;-80
2023/10/18 05:26:17;;;;;;;20.50;15.80;;;;;;;2.22;100.00;100418.20;177287;1255;46006;-80
2023/10/18 05:30:26;;;;;;;26.90;15.50;;;;;;;2.19;100.00;100416.92;176717;1256;45971;-80
2023/10/18 05:34:48;;;;;;;20.50;17.00;;;;;;;2.18;100.00;100414.89;177588;1256;59467;-80
2023/10/18 05:43:35;;;;;;;23.60;15.70;;;;;;;2.37;100.00;100414.55;177595;1257;46260;-80
2023/10/18 05:47:38;;;;;;;22.30;14.50;;;;;;;2.44;100.00;100414.06;178033;1257;45933;-80
2023/10/18 05:51:53;;;;;;;26.10;17.30;;;;;;;2.51;100.00;100416.54;177199;1259;46082;-80
2023/10/18 05:55:56;;;;;;;23.50;14.20;;;;;;;2.57;100.00;100414.85;177333;1257;59943;-80
2023/10/18 05:59:59;;;;;;;19.90;13.80;;;;;;;2.72;100.00;100420.85;177793;1257;46069;-81
2023/10/18 06:04:03;;;;;;;21.80;14.10;;;;;;;2.70;100.00;100417.40;177493;1256;46186;-81
2023/10/18 06:08:07;;;;;;;25.80;15.90;;;;;;;2.58;100.00;100416.03;177416;1255;46179;-80
2023/10/18 06:12:14;;;;;;;19.70;14.30;;;;;;;2.58;100.00;100419.41;178835;1257;46048;-81
2023/10/18 06:16:19;;;;;;;25.60;16.60;;;;;;;2.72;100.00;100414.17;178264;1257;59762;-80
2023/10/18 06:20:28;;;;;;;23.40;15.50;;;;;;;2.92;100.00;100411.84;177472;1257;46037;-80
2023/10/18 06:24:33;;;;;;;27.80;17.40;;;;;;;3.07;100.00;100409.73;178145;1257;46124;-80
2023/10/18 06:28:37;;;;;;;26.00;17.20;;;;;;;3.13;100.00;100414.16;177592;1258;46641;-80
2023/10/18 06:32:41;;;;;;;36.20;22.50;;;;;;;3.27;100.00;100414.52;177237;1257;46216;-81
2023/10/18 06:36:48;;;;;;;33.40;20.60;;;;;;;3.58;100.00;100411.26;177289;1258;58250;-80
2023/10/18 06:41:02;;;;;;;32.90;22.40;;;;;;;3.95;100.00;100405.19;177585;1256;46088;-80
2023/10/18 06:45:15;;;;;;;30.00;18.10;;;;;;;4.20;100.00;100398.77;176997;1259;46070;-81
2023/10/18 06:49:18;;;;;;;26.40;18.40;;;;;;;4.39;100.00;100398.48;176419;1257;46130;-80
2023/10/18 06:53:21;;;;;;;33.10;23.60;;;;;;;4.63;100.00;100399.83;178121;1259;46102;-80
2023/10/18 06:57:27;;;;;;;31.40;19.80;;;;;;;4.79;100.00;100412.64;176275;1258;59545;-80
2023/10/18 07:01:42;;;;;;;26.90;18.50;;;;;;;4.86;100.00;100408.73;177141;1257;46432;-81
2023/10/18 07:05:54;;;;;;;28.90;20.80;;;;;;;4.97;100.00;100402.67;177860;1257;46204;-80
2023/10/18 07:09:58;;;;;;;25.80;16.10;;;;;;;5.12;100.00;100400.06;178489;1256;46032;-80
2023/10/18 07:14:04;;;;;;;35.80;23.70;;;;;;;5.31;100.00;100398.63;177873;1256;44086;-80
2023/10/18 07:18:13;;;;;;;;;;;;;;;5.54;100.00;100404.70;177814;1257;59650;-80
2023/10/18 07:22:21;;;;;;;462.00;298.10;;;;;;;5.76;100.00;100404.64;177379;1257;46431;-80
2023/10/18 07:26:24;;;;;;;40.60;24.30;;;;;;;6.00;100.00;100405.51;177717;1257;46265;-80
2023/10/18 07:30:46;;;;;;;156.90;96.50;;;;;;;6.29;100.00;100406.61;177454;1257;46015;-80
2023/10/18 07:34:54;;;;;;;62.20;40.80;;;;;;;6.57;100.00;100398.91;177717;1256;46038;-80
2023/10/18 07:38:58;;;;;;;40.40;24.10;;;;;;;6.85;100.00;100396.22;176720;1258;57661;-80
2023/10/18 07:43:04;;;;;;;36.60;24.80;;;;;;;7.12;100.00;100399.82;177362;1255;45987;-80
2023/10/18 07:47:17;;;;;;;43.70;27.10;;;;;;;7.31;100.00;100388.65;176862;1257;45996;-81
2023/10/18 07:51:23;;;;;;;38.70;25.40;;;;;;;7.49;100.00;100385.00;177481;1257;46201;-80
2023/10/18 07:55:36;;;;;;;34.90;23.00;;;;;;;7.66;100.00;100385.13;177538;1257;46099;-81
2023/10/18 07:59:45;;;;;;;27.50;18.00;;;;;;;7.76;100.00;100385.33;177619;1257;58229;-81
2023/10/18 08:03:51;;;;;;;28.60;20.10;;;;;;;7.94;100.00;100388.55;176657;1257;46200;-81
2023/10/18 08:08:08;;;;;;;31.30;21.60;;;;;;;8.20;100.00;100382.45;178914;1257;45956;-80
2023/10/18 08:12:30;;;;;;;34.60;21.70;;;;;;;8.43;98.85;100382.44;178329;1258;46225;-80
2023/10/18 08:16:43;;;;;;;26.20;19.90;;;;;;;8.65;99.72;100378.11;177752;1258;45942;-80
2023/10/18 08:24:52;;;;;;;51.80;42.60;;;;;;;9.05;97.93;100381.61;177236;1259;46101;-80
2023/10/18 08:28:55;;;;;;;22.80;17.90;;;;;;;9.19;98.01;100378.59;177743;1259;45987;-81
2023/10/18 08:32:58;;;;;;;25.20;20.40;;;;;;;9.28;98.21;100378.65;176991;1261;46098;-80
2023/10/18 08:37:01;;;;;;;29.00;20.70;;;;;;;9.36;97.43;100373.98;177744;1260;46050;-80
2023/10/18 08:41:13;;;;;;;27.80;18.60;;;;;;;9.47;97.71;100369.14;177136;1259;58196;-80
2023/10/18 08:45:23;;;;;;;31.60;20.30;;;;;;;9.57;97.48;100370.64;178731;1257;46048;-80
2023/10/18 08:49:32;;;;;;;24.70;18.90;;;;;;;9.64;97.21;100367.66;177357;1260;46117;-81
2023/10/18 08:53:41;;;;;;;23.30;16.90;;;;;;;9.73;97.40;100362.88;177964;1259;46226;-81
2023/10/18 08:57:44;;;;;;;35.00;17.70;;;;;;;9.85;95.07;100361.78;177102;1259;46115;-80
2023/10/18 09:06:33;;;;;;;32.90;18.00;;;;;;;10.15;95.56;100350.63;176678;1266;46006;-80
2023/10/18 09:14:39;;;;;;;24.60;15.30;;;;;;;10.39;93.32;100335.64;176684;1263;46089;-80
2023/10/18 09:18:42;;;;;;;25.70;15.10;;;;;;;10.61;93.32;100326.38;176905;1263;45822;-80
2023/10/18 09:22:48;;;;;;;25.40;15.10;;;;;;;10.80;91.16;100324.33;177798;1263;60560;-81
2023/10/18 09:26:51;;;;;;;23.30;15.40;;;;;;;10.92;89.38;100323.95;177360;1260;46112;-80
2023/10/18 09:31:02;;;;;;;16.00;12.30;;;;;;;11.00;88.55;100322.00;177477;1262;46547;-81
2023/10/18 09:35:07;;;;;;;21.10;14.30;;;;;;;11.16;86.92;100314.52;176271;1260;46220;-81
2023/10/18 09:39:14;;;;;;;20.40;14.40;;;;;;;11.32;87.17;100310.81;178041;1260;46182;-80
2023/10/18 09:43:17;;;;;;;30.30;11.10;;;;;;;11.49;85.35;100304.24;177231;1256;58219;-81
2023/10/18 09:47:26;;;;;;;18.00;12.10;;;;;;;11.62;83.86;100296.39;177539;1260;46117;-80
2023/10/18 09:51:31;;;;;;;16.60;10.40;;;;;;;11.74;83.38;100287.73;176888;1256;46038;-80
2023/10/18 09:55:34;;;;;;;17.00;11.30;;;;;;;11.83;81.50;100280.00;176860;1258;46111;-80
2023/10/18 09:59:38;;;;;;;14.90;12.40;;;;;;;11.99;80.42;100273.35;176664;1257;46123;-81
2023/10/18 10:03:52;;;;;;;16.20;11.70;;;;;;;12.13;80.11;100265.23;176506;1260;59534;-80
2023/10/18 10:08:06;;;;;;;14.40;9.50;;;;;;;12.30;81.10;100258.67;176901;1260;46082;-80
2023/10/18 10:12:11;;;;;;;17.50;11.40;;;;;;;12.40;75.40;100254.81;176712;1258;46457;-81
2023/10/18 10:16:14;;;;;;;17.50;12.10;;;;;;;12.52;76.27;100248.63;177903;1258;46104;-81
2023/10/18 10:20:21;;;;;;;12.20;8.90;;;;;;;12.57;74.94;100247.05;177421;1257;46072;-81
2023/10/18 10:24:42;;;;;;;14.00;10.40;;;;;;;12.65;74.82;100241.70;178172;1257;60082;-81
2023/10/18 10:33:12;;;;;;;16.10;9.10;;;;;;;12.84;70.69;100225.63;177587;1258;46217;-81
2023/10/18 10:37:23;;;;;;;13.10;8.90;;;;;;;12.94;71.12;100222.73;177716;1258;44892;-81
2023/10/18 10:41:30;;;;;;;14.30;7.80;;;;;;;12.97;69.30;100214.98;177909;1256;46146;-81
2023/10/18 10:45:41;;;;;;;10.70;8.50;;;;;;;13.02;69.46;100209.92;177417;1258;59242;-81
2023/10/18 10:49:58;;;;;;;11.60;7.90;;;;;;;13.08;67.81;100209.89;176910;1260;46087;-81
2023/10/18 10:54:01;;;;;;;9.30;7.40;;;;;;;13.07;67.92;100203.15;177447;1260;46078;-80
2023/10/18 10:58:17;;;;;;;12.00;8.10;;;;;;;13.14;68.69;100196.33;177455;1257;46070;-81
2023/10/18 11:02:39;;;;;;;10.20;7.80;;;;;;;13.17;66.99;100190.37;177490;1257;44695;-81
2023/10/18 11:06:43;;;;;;;9.30;7.10;;;;;;;13.19;67.18;100182.79;178311;1259;58016;-81
2023/10/18 11:10:47;;;;;;;9.80;7.60;;;;;;;13.23;67.68;100181.23;177455;1257;46160;-80
2023/10/18 11:14:50;;;;;;;11.30;8.40;;;;;;;13.27;69.11;100178.15;177547;1257;45999;-80
2023/10/18 11:18:53;;;;;;;12.70;8.60;;;;;;;13.33;66.75;100175.34;177603;1259;46210;-80
2023/10/18 11:22:56;;;;;;;11.80;8.50;;;;;;;13.31;65.59;100170.16;177530;1257;45997;-80
2023/10/18 11:26:59;;;;;;;11.30;8.80;;;;;;;13.35;66.65;100165.13;176995;1259;57664;-81
2023/10/18 11:31:04;;;;;;;10.60;8.70;;;;;;;13.36;66.60;100161.11;177792;1260;45997;-81
2023/10/18 11:35:12;;;;;;;27.90;7.70;;;;;;;13.40;68.23;100158.58;177593;1257;46137;-80
2023/10/18 11:39:21;;;;;;;15.30;8.10;;;;;;;13.40;67.49;100158.92;177642;1257;46108;-81
2023/10/18 11:43:27;;;;;;;12.10;7.80;;;;;;;13.36;67.81;100155.98;177788;1257;46000;-81
2023/10/18 11:47:31;;;;;;;13.70;8.70;;;;;;;13.37;67.96;100157.11;177907;1257;59800;-81
2023/10/18 11:51:41;;;;;;;14.10;9.10;;;;;;;13.36;66.94;100154.52;177456;1257;46492;-81
2023/10/18 11:55:59;;;;;;;9.70;8.40;;;;;;;13.34;68.10;100145.61;178720;1257;44123;-81
2023/10/18 12:04:27;;;;;;;8.20;7.00;;;;;;;13.46;67.47;100130.04;178059;1256;46000;-81
2023/10/18 12:13:13;;;;;;;15.00;9.30;;;;;;;13.47;66.31;100112.85;177697;1256;46089;-80
2023/10/18 12:17:17;;;;;;;10.20;7.40;;;;;;;13.47;65.47;100108.08;178400;1256;46090;-80
2023/10/18 12:21:21;;;;;;;8.80;6.80;;;;;;;13.49;65.20;100100.38;177500;1257;46111;-80
2023/10/18 12:25:24;;;;;;;8.70;7.40;;;;;;;13.46;67.40;100097.29;178106;1257;45861;-80
2023/10/18 12:29:27;;;;;;;7.00;6.00;;;;;;;13.54;65.34;100091.21;177701;1257;59720;-80
2023/10/18 12:33:33;;;;;;;9.40;7.30;;;;;;;13.58;65.14;100083.84;177432;1257;46227;-80
2023/10/18 12:37:40;;;;;;;7.40;5.50;;;;;;;13.56;64.29;100077.95;178200;1256;45995;-80
2023/10/18 12:41:43;;;;;;;6.80;5.50;;;;;;;13.62;63.88;100068.55;178183;1255;46159;-80
2023/10/18 12:45:50;;;;;;;8.40;5.80;;;;;;;13.64;63.98;100062.12;177855;1257;46009;-80
2023/10/18 12:49:54;;;;;;;6.10;5.40;;;;;;;13.69;64.29;100059.07;177472;1260;59762;-80
2023/10/18 12:53:57;;;;;;;8.20;5.60;;;;;;;13.70;64.15;100052.97;178265;1260;46131;-80
2023/10/18 12:58:00;;;;;;;7.60;5.20;;;;;;;13.73;65.09;100046.44;178517;1256;46137;-81
2023/10/18 13:02:04;;;;;;;7.60;5.70;;;;;;;13.72;64.85;100043.07;177030;1256;46123;-81
2023/10/18 13:06:15;;;;;;;7.70;6.80;;;;;;;13.76;64.11;100033.11;177979;1259;46041;-81
2023/10/18 13:10:35;;;;;;;12.10;7.50;;;;;;;13.84;65.59;100025.92;179383;1256;59582;-82
2023/10/18 13:19:14;;;;;;;8.00;6.70;;;;;;;13.92;64.98;100010.45;177505;1261;45962;-84
2023/10/18 13:23:21;;;;;;;13.70;7.20;;;;;;;13.94;65.76;100004.05;178132;1261;46040;-84
2023/10/18 13:27:33;;;;;;;9.70;6.10;;;;;;;13.99;66.03;100003.73;177547;1262;45923;-83
2023/10/18 13:31:44;;;;;;;13.30;6.50;;;;;;;14.00;65.17;99997.08;177638;1262;57929;-83
2023/10/18 13:35:49;;;;;;;6.40;5.40;;;;;;;13.91;65.48;99996.20;177806;1262;45918;-83
2023/10/18 13:39:55;;;;;;;10.20;6.90;;;;;;;13.98;66.08;99985.84;177728;1262;45930;-82
2023/10/18 13:48:43;;;;;;;12.50;6.00;;;;;;;14.08;64.87;99980.16;178741;1266;43941;-75
2023/10/18 13:52:47;;;;;;;16.10;6.40;;;;;;;14.09;65.78;99973.41;178101;1266;58675;-75
2023/10/18 13:56:50;;;;;;;7.40;6.30;;;;;;;14.10;66.76;99965.00;179331;1267;44679;-76
2023/10/18 14:00:55;;;;;;;7.70;6.90;;;;;;;14.14;65.47;99957.13;179827;1267;43902;-76
2023/10/18 14:04:58;;;;;;;10.60;7.10;;;;;;;14.23;66.55;99953.33;180446;1265;43999;-77
2023/10/18 14:09:04;;;;;;;8.80;5.80;;;;;;;14.28;65.71;99947.52;180396;1265;222605;-76
2023/10/18 14:13:07;;;;;;;9.00;6.10;;;;;;;14.30;64.99;99941.43;180133;1265;59696;-76
2023/10/18 14:17:11;;;;;;;24.40;13.60;;;;;;;14.29;66.04;99939.56;179057;1265;44008;-76
2023/10/18 14:21:21;;;;;;;8.60;6.90;;;;;;;14.26;65.63;99937.54;178894;1265;44053;-76
2023/10/18 14:25:25;;;;;;;28.30;21.00;;;;;;;14.23;67.15;99927.73;179029;1266;45792;-76
2023/10/18 14:29:29;;;;;;;40.40;19.40;;;;;;;14.19;67.31;99919.73;178142;1267;44956;-76
2023/10/18 14:33:32;;;;;;;12.70;9.90;;;;;;;14.11;67.69;99923.30;178961;1267;58607;-76
2023/10/18 14:37:44;;;;;;;13.80;9.20;;;;;;;14.05;70.35;99925.98;178130;1266;44558;-76
2023/10/18 14:41:47;;;;;;;9.60;6.80;;;;;;;13.94;68.97;99918.66;178325;1265;46015;-76
2023/10/18 14:45:51;;;;;;;9.20;5.70;;;;;;;13.83;70.83;99921.77;178057;1265;46129;-76
2023/10/18 14:49:54;;;;;;;7.60;5.00;;;;;;;13.65;69.98;99911.03;178242;1265;46011;-76
2023/10/18 14:53:57;;;;;;;7.00;6.10;;;;;;;13.45;69.55;99907.16;178221;1265;57475;-77
2023/10/18 14:58:00;;;;;;;10.30;6.20;;;;;;;13.26;70.73;99908.27;177312;1265;46105;-76
2023/10/18 15:02:03;;;;;;;6.90;6.00;;;;;;;13.09;70.85;99905.34;177107;1265;46480;-76
2023/10/18 15:06:08;;;;;;;7.50;5.60;;;;;;;12.94;72.46;99902.66;176434;1267;46119;-76
2023/10/18 15:10:11;;;;;;;9.90;7.00;;;;;;;12.79;73.16;99901.98;178748;1266;46018;-77
2023/10/18 15:14:14;;;;;;;12.80;6.90;;;;;;;12.63;74.00;99903.38;178627;1265;58677;-76
2023/10/18 15:18:17;;;;;;;7.90;6.30;;;;;;;12.50;74.83;99898.20;177011;1266;46085;-76
2023/10/18 15:22:21;;;;;;;9.10;6.40;;;;;;;12.31;76.30;99893.23;178694;1266;44132;-77
2023/10/18 15:26:29;;;;;;;13.40;6.80;;;;;;;12.16;77.16;99887.86;178993;1265;46022;-77
2023/10/18 15:30:33;;;;;;;10.10;7.20;;;;;;;12.05;77.53;99883.77;176877;1265;46066;-75
2023/10/18 15:34:40;;;;;;;9.30;6.90;;;;;;;11.93;77.61;99881.13;177960;1264;58452;-74
2023/10/18 15:38:45;;;;;;;9.90;8.90;;;;;;;11.78;77.70;99874.49;178769;1265;46124;-77
2023/10/18 15:42:47;;;;;;;10.50;7.10;;;;;;;11.71;77.64;99880.02;177519;1265;46004;-76
2023/10/18 15:46:51;;;;;;;13.80;9.10;;;;;;;11.67;77.79;99879.27;176930;1265;46226;-76
2023/10/18 15:50:54;;;;;;;11.50;8.90;;;;;;;11.60;78.16;99880.45;176737;1265;46059;-76
2023/10/18 15:54:58;;;;;;;7.30;6.60;;;;;;;11.50;78.90;99877.33;177909;1265;59840;-76
2023/10/18 15:59:03;;;;;;;10.60;7.30;;;;;;;11.33;79.59;99875.65;178123;1264;46047;-75
2023/10/18 16:03:08;;;;;;;11.00;7.10;;;;;;;11.11;80.60;99865.90;177974;1265;45881;-76
2023/10/18 16:07:12;;;;;;;8.60;7.70;;;;;;;10.89;81.12;99860.28;177921;1265;46163;-76
2023/10/18 16:11:15;;;;;;;16.20;9.70;;;;;;;10.75;81.27;99863.27;178662;1265;45933;-76
2023/10/18 16:15:23;;;;;;;11.20;8.90;;;;;;;10.67;81.50;99861.62;178745;1265;58475;-76
2023/10/18 16:19:30;;;;;;;11.60;9.40;;;;;;;10.59;81.45;99858.41;179028;1265;46092;-77
2023/10/18 16:23:39;;;;;;;12.30;8.70;;;;;;;10.52;81.53;99854.14;178303;1265;46039;-77
2023/10/18 16:27:45;;;;;;;14.60;9.10;;;;;;;10.47;81.73;99853.70;177925;1265;44398;-77
2023/10/18 16:31:49;;;;;;;23.70;14.30;;;;;;;10.40;81.90;99849.30;177241;1265;46487;-77
2023/10/18 16:35:56;;;;;;;16.80;11.20;;;;;;;10.35;81.87;99855.77;177833;1265;60557;-77
2023/10/18 16:40:03;;;;;;;22.70;13.80;;;;;;;10.27;81.90;99852.38;179551;1268;45861;-77
2023/10/18 16:44:06;;;;;;;19.90;12.90;;;;;;;10.19;81.80;99853.55;178641;1264;46032;-77
2023/10/18 16:48:09;;;;;;;19.80;12.90;;;;;;;10.09;82.05;99851.55;177567;1264;51204;-76
2023/10/18 16:52:13;;;;;;;13.30;10.90;;;;;;;10.06;82.37;99854.12;178568;1264;46027;-76
2023/10/18 16:56:16;;;;;;;17.80;11.50;;;;;;;10.01;83.01;99852.42;178802;1266;57516;-76
2023/10/18 17:00:20;;;;;;;16.30;10.00;;;;;;;9.93;83.25;99849.45;178254;1264;46082;-77
2023/10/18 17:04:37;;;;;;;15.00;10.10;;;;;;;9.82;83.55;99839.90;177855;1265;46109;-76
2023/10/18 17:08:41;;;;;;;13.20;10.90;;;;;;;9.71;83.82;99837.98;178244;1265;46056;-76
2023/10/18 17:12:47;;;;;;;16.90;13.80;;;;;;;9.62;84.09;99836.97;178492;1265;46059;-76
2023/10/18 17:16:51;;;;;;;17.70;12.20;;;;;;;9.58;84.36;99832.02;178351;1265;58580;-75
2023/10/18 17:20:54;;;;;;;18.70;13.00;;;;;;;9.54;84.34;99827.90;178916;1265;46147;-76
2023/10/18 17:25:17;;;;;;;17.10;13.10;;;;;;;9.48;84.50;99819.25;179540;1265;46020;-76
2023/10/18 17:29:20;;;;;;;18.70;13.70;;;;;;;9.40;84.71;99818.30;179147;1265;44247;-76
2023/10/18 17:33:25;;;;;;;22.20;15.80;;;;;;;9.35;84.70;99816.95;178543;1265;44091;-76
2023/10/18 17:37:28;;;;;;;27.70;18.50;;;;;;;9.29;84.83;99817.57;179926;1265;59454;-76
2023/10/18 17:41:32;;;;;;;17.70;12.50;;;;;;;9.22;85.56;99816.26;180187;1265;44183;-77
2023/10/18 17:45:37;;;;;;;18.00;12.70;;;;;;;9.06;86.51;99812.58;180493;1265;44050;-76
2023/10/18 17:49:42;;;;;;;18.60;13.40;;;;;;;8.93;87.06;99810.89;178095;1265;45243;-76
2023/10/18 17:53:46;;;;;;;22.80;16.40;;;;;;;8.80;87.84;99802.55;178056;1264;46020;-76
2023/10/18 17:57:53;;;;;;;17.60;15.00;;;;;;;8.67;88.10;99799.54;179473;1264;58866;-76
2023/10/18 18:01:56;;;;;;;22.80;16.00;;;;;;;8.60;88.57;99798.65;177934;1265;46149;-76
2023/10/18 18:06:06;;;;;;;22.10;16.90;;;;;;;8.51;89.78;99800.08;179682;1264;46130;-76
2023/10/18 18:10:09;;;;;;;25.60;20.20;;;;;;;8.34;91.06;99798.09;179637;1265;45891;-77
2023/10/18 18:14:12;;;;;;;23.50;19.60;;;;;;;8.02;93.39;99792.63;180062;1265;43785;-76
2023/10/18 18:18:16;;;;;;;22.40;16.20;;;;;;;7.89;93.42;99788.23;178947;1264;58981;-76
2023/10/18 18:22:19;;;;;;;27.00;18.00;;;;;;;7.83;94.21;99784.73;179963;1265;44155;-76
2023/10/18 18:26:25;;;;;;;30.40;18.60;;;;;;;7.70;95.62;99788.27;180248;1264;44727;-76
2023/10/18 18:30:29;;;;;;;39.10;25.90;;;;;;;7.54;95.51;99787.85;180123;1264;44221;-77
2023/10/18 18:34:32;;;;;;;33.20;23.90;;;;;;;7.50;94.58;99789.40;178804;1264;46016;-76
2023/10/18 18:38:44;;;;;;;32.20;21.10;;;;;;;7.40;96.43;99792.96;179821;1265;59977;-76
2023/10/18 18:42:54;;;;;;;23.40;18.60;;;;;;;7.33;97.13;99789.79;178056;1265;46143;-76
2023/10/18 18:46:57;;;;;;;26.20;17.70;;;;;;;7.34;97.46;99781.64;178699;1265;46046;-75
2023/10/18 18:51:00;;;;;;;21.60;14.20;;;;;;;7.34;97.83;99780.96;178221;1264;46114;-76
2023/10/18 18:55:14;;;;;;;26.30;16.00;;;;;;;7.24;98.85;99777.23;180182;1264;43874;-76
2023/10/18 18:59:17;;;;;;;22.60;18.60;;;;;;;7.28;98.24;99771.84;179164;1265;58704;-76
2023/10/18 19:03:20;;;;;;;24.30;18.80;;;;;;;7.32;97.88;99765.41;178486;1265;44108;-76
2023/10/18 19:07:24;;;;;;;29.50;19.80;;;;;;;7.32;97.79;99758.38;178332;1264;45981;-76
2023/10/18 19:11:27;;;;;;;35.90;21.30;;;;;;;7.32;98.49;99754.13;178740;1264;46015;-76
2023/10/18 19:15:31;;;;;;;27.50;19.10;;;;;;;7.32;98.84;99737.91;177626;1268;46012;-76
2023/10/18 19:19:36;;;;;;;25.00;16.80;;;;;;;7.34;99.22;99735.95;178533;1265;58948;-75
2023/10/18 19:23:40;;;;;;;21.20;16.90;;;;;;;7.39;98.71;99735.69;177729;1265;44410;-76
2023/10/18 19:27:44;;;;;;;21.80;17.10;;;;;;;7.40;98.49;99725.77;178125;1264;46120;-76
2023/10/18 19:31:47;;;;;;;20.90;16.60;;;;;;;7.39;96.59;99728.30;178268;1265;46142;-76